Latest Coastal Weather Observations for Noarlunga

IDS60701

Issued at 7:51 pm CDT Wednesday 18 October 2017 (issued every 10 minutes, with the page automatically refreshed every 10 minutes)

About coastal observations | Map of coastal stations | Coastal observations for SA | Marine services | Other Formats
Station Details ID: 023885 Name: NOARLUNGA Lat: -35.16 Lon: 138.51 Height: 55.0 m
Data from the previous 72 hours. | See also: Recent months at Noarlunga
Date/Time
CDT
Temp
°C
Wind Pressure Rain since
9am
mm
Weather Cloud Vis
km
Sea
Height
m
Swell
Dir  Spd
kts
Gust
kts
hPa Trend Height
m
Period
s
Dir
18/07:30pm 29.2 ENE 5 8 - - 0.0 - - - - - - -
18/07:00pm 30.5 NE 5 6 - - 0.0 - - - - - - -
18/06:30pm 31.2 NNE 4 6 - - 0.0 - - - - - - -
18/06:00pm 31.4 NNW 5 8 - - 0.0 - - - - - - -
18/05:30pm 32.1 NW 5 8 - - 0.0 - - - - - - -
18/05:00pm 32.1 NNW 6 10 - - 0.0 - - - - - - -
18/04:30pm 31.9 NW 6 10 - - 0.0 - - - - - - -
18/04:00pm 32.0 NW 7 10 - - 0.0 - - - - - - -
18/03:30pm 31.5 WNW 7 12 - - 0.0 - - - - - - -
18/03:00pm 32.0 NW 8 12 - - 0.0 - - - - - - -
18/02:30pm 31.2 NW 8 13 - - 0.0 - - - - - - -
18/02:00pm 31.4 NW 9 16 - - 0.0 - - - - - - -
18/01:30pm 31.0 NW 10 14 - - 0.0 - - - - - - -
18/01:00pm 30.1 NW 11 17 - - 0.0 - - - - - - -
18/12:30pm 29.8 NW 10 16 - - 0.0 - - - - - - -
18/12:00pm 29.7 NW 10 16 - - 0.0 - - - - - - -
18/11:30am 29.6 NNW 12 18 - - 0.0 - - - - - - -
18/11:00am 29.7 N 11 18 - - 0.0 - - - - - - -
18/10:30am 29.8 N 12 21 - - 0.0 - - - - - - -
18/10:00am 29.4 N 12 21 - - 0.0 - - - - - - -
18/09:30am 29.0 N 14 21 - - 0.0 - - - - - - -
18/09:00am 28.7 NNE 11 18 - - 0.0 - - - - - - -
18/08:30am 27.8 NNE 10 18 - - 0.0 - - - - - - -
18/08:00am 27.0 NNE 13 20 - - 0.0 - - - - - - -
18/07:30am 26.6 NNE 12 22 - - 0.0 - - - - - - -
18/07:00am 26.4 NNE 13 21 - - 0.0 - - - - - - -
18/06:32am 26.6 NNE 15 25 - - 0.0 - - - - - - -
18/06:30am 26.4 NNE 14 22 - - 0.0 - - - - - - -
18/06:00am 26.3 NNE 13 19 - - 0.0 - - - - - - -
18/05:30am 26.3 NNE 13 19 - - 0.0 - - - - - - -
18/05:00am 26.1 NNE 12 21 - - 0.0 - - - - - - -
18/04:30am 26.2 NNE 11 15 - - 0.0 - - - - - - -
18/04:00am 26.6 NNE 12 17 - - 0.0 - - - - - - -
18/03:30am 26.9 NNE 11 18 - - 0.0 - - - - - - -
18/03:00am 26.7 NNE 10 16 - - 0.0 - - - - - - -
18/02:30am 27.0 NNE 9 15 - - 0.0 - - - - - - -
18/02:00am 27.1 NE 9 17 - - 0.0 - - - - - - -
18/01:30am 27.0 NE 8 12 - - 0.0 - - - - - - -
18/01:00am 26.9 NE 6 9 - - 0.0 - - - - - - -
18/12:30am 27.2 NE 7 10 - - 0.0 - - - - - - -
18/12:00am 27.3 NE 7 9 - - 0.0 - - - - - - -
 
Date/Time
CDT
Temp
°C
Wind Pressure Rain since
9am
mm
Weather Cloud Vis
km
Sea
Height
m
Swell
Dir  Spd
kts
Gust
kts
hPa Trend Height
m
Period
s
Dir
17/11:30pm 27.3 NE 6 9 - - 0.0 - - - - - - -
17/11:00pm 27.3 NE 5 7 - - 0.0 - - - - - - -
17/10:30pm 27.8 NE 5 8 - - 0.0 - - - - - - -
17/10:00pm 28.1 NE 7 9 - - 0.0 - - - - - - -
17/09:30pm 28.0 NE 6 9 - - 0.0 - - - - - - -
17/09:00pm 27.3 ENE 5 7 - - 0.0 - - - - - - -
17/08:30pm 27.4 ENE 5 8 - - 0.0 - - - - - - -
17/08:00pm 27.3 E 6 7 - - 0.0 - - - - - - -
17/07:30pm 27.7 SE 3 5 - - 0.0 - - - - - - -
17/07:00pm 28.2 SSE 4 5 - - 0.0 - - - - - - -
17/06:30pm 29.6 S 5 7 - - 0.0 - - - - - - -
17/06:00pm 30.6 SSW 3 6 - - 0.0 - - - - - - -
17/05:30pm 31.3 WSW 3 4 - - 0.0 - - - - - - -
17/05:00pm 31.0 SW 3 5 - - 0.0 - - - - - - -
17/04:30pm 30.6 W 4 6 - - 0.0 - - - - - - -
17/04:00pm 30.5 W 6 9 - - 0.0 - - - - - - -
17/03:30pm 30.4 NW 7 10 - - 0.0 - - - - - - -
17/03:00pm 30.7 NW 8 13 - - 0.0 - - - - - - -
17/02:30pm 30.6 NW 7 11 - - 0.0 - - - - - - -
17/02:00pm 30.1 NW 9 13 - - 0.0 - - - - - - -
17/01:30pm 30.2 NNW 9 16 - - 0.0 - - - - - - -
17/01:00pm 30.0 NNW 11 18 - - 0.0 - - - - - - -
17/12:30pm 30.0 NNW 12 17 - - 0.0 - - - - - - -
17/12:00pm 29.4 NNW 15 25 - - 0.0 - - - - - - -
17/11:58am 29.1 NNW 15 25 - - 0.0 - - - - - - -
17/11:30am 29.3 NNW 12 18 - - 0.0 - - - - - - -
17/11:00am 29.2 N 13 18 - - 0.0 - - - - - - -
17/10:30am 28.7 N 15 22 - - 0.0 - - - - - - -
17/10:00am 28.7 N 16 25 - - 0.0 - - - - - - -
17/09:30am 28.5 NNE 12 18 - - 0.0 - - - - - - -
17/09:00am 27.4 NNE 12 19 - - 0.0 - - - - - - -
17/08:30am 27.2 NNE 10 17 - - 0.0 - - - - - - -
17/08:00am 26.7 NNE 9 14 - - 0.0 - - - - - - -
17/07:30am 26.1 NNE 9 16 - - 0.0 - - - - - - -
17/07:00am 25.7 NE 9 15 - - 0.0 - - - - - - -
17/06:30am 25.3 NE 10 14 - - 0.0 - - - - - - -
17/06:00am 25.6 NE 9 15 - - 0.0 - - - - - - -
17/05:30am 25.8 NE 10 17 - - 0.0 - - - - - - -
17/05:00am 26.0 NE 10 17 - - 0.0 - - - - - - -
17/04:30am 25.4 NE 8 13 - - 0.0 - - - - - - -
17/04:00am 25.7 NE 9 13 - - 0.0 - - - - - - -
17/03:30am 25.8 NE 8 14 - - 0.0 - - - - - - -
17/03:00am 25.8 NE 7 10 - - 0.0 - - - - - - -
17/02:30am 26.0 NE 7 12 - - 0.0 - - - - - - -
17/02:00am 26.3 NE 8 12 - - 0.0 - - - - - - -
17/01:30am 25.6 ENE 7 12 - - 0.0 - - - - - - -
17/01:00am 25.1 ENE 9 13 - - 0.0 - - - - - - -
17/12:30am 24.4 ENE 8 12 - - 0.0 - - - - - - -
17/12:00am 24.1 ENE 5 8 - - 0.0 - - - - - - -
 
Date/Time
CDT
Temp
°C
Wind Pressure Rain since
9am
mm
Weather Cloud Vis
km
Sea
Height
m
Swell
Dir  Spd
kts
Gust
kts
hPa Trend Height
m
Period
s
Dir
16/11:30pm 23.9 E 9 14 - - 0.0 - - - - - - -
16/11:00pm 24.1 E 13 18 - - 0.0 - - - - - - -
16/10:30pm 24.3 E 13 19 - - 0.0 - - - - - - -
16/10:00pm 24.0 E 12 17 - - 0.0 - - - - - - -
16/09:30pm 24.3 ESE 12 18 - - 0.0 - - - - - - -
16/09:00pm 24.4 ESE 10 15 - - 0.0 - - - - - - -
16/08:30pm 25.3 E 7 9 - - 0.0 - - - - - - -
16/08:00pm 26.7 ESE 8 10 - - 0.0 - - - - - - -
16/07:30pm 28.4 E 7 13 - - 0.0 - - - - - - -
16/07:00pm 29.0 E 7 14 - - 0.0 - - - - - - -
16/06:30pm 29.8 E 7 10 - - 0.0 - - - - - - -
16/06:00pm 30.2 E 7 11 - - 0.0 - - - - - - -
16/05:30pm 30.4 ESE 9 15 - - 0.0 - - - - - - -
16/05:00pm 30.6 ESE 8 11 - - 0.0 - - - - - - -
16/04:30pm 30.7 ESE 8 13 - - 0.0 - - - - - - -
16/04:00pm 30.5 E 6 10 - - 0.0 - - - - - - -
16/03:30pm 30.5 SSW 4 7 - - 0.0 - - - - - - -
16/03:00pm 29.4 W 5 8 - - 0.0 - - - - - - -
16/02:30pm 29.9 W 5 8 - - 0.0 - - - - - - -
16/02:00pm 29.4 WNW 6 8 - - 0.0 - - - - - - -
16/01:30pm 29.1 WNW 6 8 - - 0.0 - - - - - - -
16/01:00pm 28.5 W 3 7 - - 0.0 - - - - - - -
16/12:30pm 26.6 WNW 3 4 - - 0.0 - - - - - - -
16/12:00pm 24.6 W 3 5 - - 0.0 - - - - - - -
16/11:30am 23.7 WNW 5 7 - - 0.0 - - - - - - -
16/11:00am 24.4 NW 6 9 - - 0.0 - - - - - - -
16/10:30am 26.3 WNW 1 3 - - 0.0 - - - - - - -
16/10:00am 23.3 W 2 4 - - 0.0 - - - - - - -
16/09:30am 22.4 W 2 3 - - 0.0 - - - - - - -
16/09:00am 21.2 S 1 2 - - 0.0 - - - - - - -
16/08:30am 20.0 SE 1 2 - - 0.0 - - - - - - -
16/08:00am 18.3 WSW 1 2 - - 0.0 - - - - - - -
16/07:30am 18.1 SSE 2 3 - - 0.0 - - - - - - -
16/07:00am 17.3 WNW 2 4 - - 0.0 - - - - - - -
16/06:30am 19.9 ENE 7 12 - - 0.0 - - - - - - -
16/06:00am 19.8 ENE 7 12 - - 0.0 - - - - - - -
16/05:30am 19.8 ENE 8 12 - - 0.0 - - - - - - -
16/05:00am 19.0 ENE 9 13 - - 0.0 - - - - - - -
16/04:30am 18.6 ENE 10 15 - - 0.0 - - - - - - -
16/04:00am 18.5 E 10 15 - - 0.0 - - - - - - -
16/03:30am 17.8 E 9 15 - - 0.0 - - - - - - -
16/03:00am 17.0 E 13 19 - - 0.0 - - - - - - -
16/02:30am 16.9 E 13 20 - - 0.0 - - - - - - -
16/02:00am 16.4 E 14 22 - - 0.0 - - - - - - -
16/01:30am 16.3 E 12 19 - - 0.0 - - - - - - -
16/01:00am 16.3 ESE 14 21 - - 0.0 - - - - - - -
16/12:30am 16.0 ESE 15 23 - - 0.0 - - - - - - -
16/12:00am 15.9 ESE 14 18 - - 0.0 - - - - - - -
 
Date/Time
CDT
Temp
°C
Wind Pressure Rain since
9am
mm
Weather Cloud Vis
km
Sea
Height
m
Swell
Dir  Spd
kts
Gust
kts
hPa Trend Height
m
Period
s
Dir
15/11:30pm 15.7 ESE 14 20 - - 0.0 - - - - - - -
15/11:00pm 15.4 ESE 13 19 - - 0.0 - - - - - - -
15/10:30pm 15.4 ESE 13 19 - - 0.0 - - - - - - -
15/10:00pm 15.2 ESE 12 19 - - 0.0 - - - - - - -
15/09:30pm 14.8 ESE 12 16 - - 0.0 - - - - - - -
15/09:00pm 14.9 ESE 11 16 - - 0.0 - - - - - - -
15/08:30pm 15.2 ESE 8 13 - - 0.0 - - - - - - -
15/08:00pm 15.5 ESE 9 15 - - 0.0 - - - - - - -

Other Formats:

Comma delimited format used in spreadsheet applications
http://www.bom.gov.au/fwo/IDS60701/IDS60701.94808.axf

JavaScript Object Notation format (JSON) in row-major order
http://www.bom.gov.au/fwo/IDS60701/IDS60701.94808.json